This is the latest recevied weather packets stored in our database for station/object KJ4UBX-11. If no packets are shown the sender has not sent any weather packets the latest 10 day(s).
| Time | Temp. | Humidity | Pressure | Rain* | Wind** | Luminosity | Snow |
|---|---|---|---|---|---|---|---|
| 1778139420 | 13.89° C | 83% | 1004.6 hPa | - | - | - | - |
| 1778138835 | 13.89° C | 86% | 1004.5 hPa | - | - | - | - |
| 1778138252 | 13.89° C | 86% | 1004.3 hPa | - | - | - | - |
| 1778137669 | 13.89° C | 84% | 1004.2 hPa | - | - | - | - |
| 1778137086 | 14.44° C | 84% | 1004.2 hPa | - | - | - | - |
| 1778136504 | 14.44° C | 86% | 1004.2 hPa | - | - | - | - |
| 1778135920 | 14.44° C | 87% | 1003.9 hPa | - | - | - | - |
| 1778135338 | 14.44° C | 85% | 1004 hPa | - | - | - | - |
| 1778134754 | 14.44° C | 88% | 1003.7 hPa | - | - | - | - |
| 1778134171 | 14.44° C | 85% | 1003.5 hPa | - | - | - | - |
| 1778133589 | 14.44° C | 87% | 1003.8 hPa | - | - | - | - |
| 1778133006 | 15° C | 82% | 1003.5 hPa | - | - | - | - |
| 1778132422 | 15° C | 83% | 1003.5 hPa | - | - | - | - |
| 1778131840 | 15° C | 88% | 1003.7 hPa | - | - | - | - |
| 1778131256 | 15° C | 88% | 1003.7 hPa | - | - | - | - |
| 1778130673 | 15.56° C | 83% | 1003.4 hPa | - | - | - | - |
| 1778130091 | 15.56° C | 92% | 1003.6 hPa | - | - | - | - |
| 1778129508 | 15.56° C | 95% | 1003.3 hPa | - | - | - | - |
| 1778128924 | 15.56° C | 92% | 1003.1 hPa | - | - | - | - |
| 1778128342 | 16.11° C | 94% | 1003.2 hPa | - | - | - | - |
| 1778127757 | 15.56° C | 100% | 1003.4 hPa | - | - | - | - |
| 1778127175 | 15° C | 99% | 1003.2 hPa | - | - | - | - |
| 1778126592 | 15.56° C | 99% | 1002.9 hPa | - | - | - | - |
| 1778126009 | 15.56° C | 99% | 1002.7 hPa | - | - | - | - |
| 1778125425 | 15.56° C | 99% | 1002.5 hPa | - | - | - | - |
* Rain since midnight (hover to see other rain measurements)
** Current wind speed in m/s (hover to see current wind gust speed)